Donalds, South Carolina
Current Conditions -  °F | °C
As of 3:56 PM on Saturday 25 Oct 2014 (Local Time) from KGRD Reporting Station
Clear Clear  
Wind Chill: 23°   Ceiling: Unl
Heat Index: 23°   Visibility: 10mi
Dew Point:   Wind: 5mph
Humidity: 31%   Direction: NA
Pressure: 29.99"   Gusts: NA
Location:  34.38°N, 82.35°W
Report Text: KGRD 251956Z AUTO VRB04KT 10SM CLR 23/05 A2999 RMK AO2 SLP154 T02280050
Loading
Personal Weather Stations






























Interactive Weather Map
Tropical Storm Tracking
New forecast layout! Learn more

10-Day Weather Forecast

Advertisements
Track Severe Weather on mobile